createdAt,value
2022-09-23T00:01:18.257Z,1.25
2022-09-23T00:03:47.101Z,1.45
2022-09-23T00:06:22.774Z,1.55
2022-09-23T00:08:50.913Z,1.55
2022-09-23T00:11:26.617Z,1.30
2022-09-23T00:13:57.199Z,1.50
2022-09-23T00:18:54.903Z,1.40
2022-09-23T00:21:22.995Z,1.42
2022-09-23T00:23:50.648Z,1.50
2022-09-23T00:26:20.624Z,1.45
2022-09-23T00:28:49.240Z,1.63
2022-09-23T00:31:22.544Z,1.50
2022-09-23T00:33:59.847Z,1.30
2022-09-23T00:36:28.974Z,1.30
2022-09-23T00:38:56.505Z,1.55
2022-09-23T00:41:24.842Z,1.70
2022-09-23T00:43:54.913Z,1.60
2022-09-23T00:46:29.030Z,1.38
2022-09-23T00:49:01.773Z,1.48
2022-09-23T00:51:34.932Z,1.35
2022-09-23T00:54:03.133Z,1.48
2022-09-23T00:56:33.109Z,1.80
2022-09-23T00:59:01.549Z,1.38
2022-09-23T01:01:28.939Z,1.55
2022-09-23T01:03:57.227Z,1.40
2022-09-23T01:06:24.476Z,1.50
2022-09-23T01:08:52.416Z,1.60
2022-09-23T01:11:24.484Z,1.33
2022-09-23T01:14:03.579Z,1.40
2022-09-23T01:16:36.914Z,1.40
2022-09-23T01:19:22.724Z,1.60
2022-09-23T01:22:19.380Z,1.65
2022-09-23T01:24:59.629Z,1.67
2022-09-23T01:27:38.393Z,1.70
2022-09-23T01:30:12.317Z,1.73
2022-09-23T01:33:13.532Z,1.65
2022-09-23T01:36:13.065Z,1.60
2022-09-23T01:39:03.112Z,1.48
2022-09-23T01:41:59.450Z,1.70
2022-09-23T01:44:36.554Z,1.60
2022-09-23T01:47:23.147Z,1.58
2022-09-23T01:50:30.370Z,1.63
2022-09-23T01:53:04.130Z,1.55
2022-09-23T01:55:35.758Z,1.40
2022-09-23T01:58:12.543Z,1.50
2022-09-23T02:01:03.253Z,1.35
2022-09-23T02:04:04.323Z,1.65
2022-09-23T02:06:39.224Z,1.33
2022-09-23T02:09:12.752Z,1.80
2022-09-23T02:11:45.418Z,1.50
2022-09-23T02:14:20.503Z,1.60
2022-09-23T02:16:51.790Z,1.40
2022-09-23T02:19:22.632Z,1.50
2022-09-23T02:21:55.720Z,1.67
2022-09-23T02:24:28.243Z,1.40
2022-09-23T02:27:26.084Z,1.30
2022-09-23T02:30:19.329Z,1.65
2022-09-23T02:32:56.711Z,1.60
2022-09-23T02:35:44.325Z,1.50
2022-09-23T02:38:35.202Z,1.23
2022-09-23T02:41:09.634Z,1.60
2022-09-23T02:43:51.791Z,1.33
2022-09-23T02:46:20.009Z,1.48
2022-09-23T02:48:57.050Z,1.70
2022-09-23T02:51:25.916Z,1.70
2022-09-23T02:53:56.547Z,1.50
2022-09-23T02:58:55.309Z,1.48
2022-09-23T03:01:47.824Z,1.50
2022-09-23T03:04:26.061Z,1.23
2022-09-23T03:07:01.699Z,1.85
2022-09-23T03:09:45.092Z,1.55
2022-09-23T03:12:30.655Z,1.55
2022-09-23T03:15:16.021Z,1.40
2022-09-23T03:18:09.383Z,1.48
2022-09-23T03:20:50.773Z,1.50
2022-09-23T03:23:25.433Z,1.50
2022-09-23T03:25:55.754Z,1.50
2022-09-23T03:28:25.642Z,1.73
2022-09-23T03:30:54.772Z,1.48
2022-09-23T03:33:28.969Z,1.50
2022-09-23T03:36:22.469Z,1.60
2022-09-23T03:38:55.519Z,1.73
2022-09-23T03:41:30.483Z,1.90
2022-09-23T03:44:00.204Z,1.60
2022-09-23T03:46:30.393Z,1.60
2022-09-23T03:49:05.603Z,1.85
2022-09-23T03:51:32.798Z,1.77
2022-09-23T03:54:00.128Z,1.50
2022-09-23T03:56:27.330Z,1.70
2022-09-23T03:58:54.513Z,1.40
2022-09-23T04:01:21.811Z,1.63
2022-09-23T04:03:49.284Z,1.40
2022-09-23T04:06:17.164Z,1.52
2022-09-23T04:08:44.320Z,1.70
2022-09-23T04:11:11.593Z,1.70
2022-09-23T04:13:38.833Z,1.75
2022-09-23T04:16:06.323Z,1.70
2022-09-23T04:18:33.541Z,1.80
2022-09-23T04:21:00.841Z,1.60
2022-09-23T04:23:28.211Z,1.88
2022-09-23T04:25:55.720Z,1.80
2022-09-23T04:28:23.489Z,2.28
2022-09-23T04:30:51.099Z,1.85
2022-09-23T04:33:18.697Z,1.80
2022-09-23T04:35:53.735Z,1.85
2022-09-23T04:38:20.999Z,1.98
2022-09-23T04:40:48.928Z,1.73
2022-09-23T04:43:16.742Z,1.58
2022-09-23T04:45:44.938Z,1.88
2022-09-23T04:48:14.153Z,1.75
2022-09-23T04:50:41.605Z,1.73
2022-09-23T04:53:08.771Z,1.80
2022-09-23T04:55:36.040Z,1.70
2022-09-23T04:58:03.361Z,1.83
2022-09-23T05:00:30.593Z,1.60
2022-09-23T05:02:57.721Z,1.52
2022-09-23T05:05:25.004Z,1.88
2022-09-23T05:07:55.894Z,1.60
2022-09-23T05:10:23.270Z,1.80
2022-09-23T05:12:53.640Z,1.73
2022-09-23T05:15:24.189Z,1.50
2022-09-23T05:17:51.363Z,1.70
2022-09-23T05:20:19.400Z,1.90
2022-09-23T05:22:46.590Z,1.77
2022-09-23T05:25:13.770Z,1.70
2022-09-23T05:27:40.990Z,1.80
2022-09-23T05:30:09.106Z,1.70
2022-09-23T05:32:36.301Z,1.90
2022-09-23T05:35:04.711Z,1.90
2022-09-23T05:37:33.312Z,1.58
2022-09-23T05:40:00.595Z,1.50
2022-09-23T05:42:28.830Z,1.77
2022-09-23T05:44:56.438Z,1.77
2022-09-23T05:47:23.795Z,1.70
2022-09-23T05:49:59.738Z,1.40
2022-09-23T05:52:27.988Z,1.70
2022-09-23T05:54:55.323Z,1.80
2022-09-23T05:57:22.627Z,1.55
2022-09-23T05:59:49.891Z,1.70
2022-09-23T06:02:17.025Z,1.63
2022-09-23T06:04:44.254Z,1.83
2022-09-23T06:07:11.803Z,1.65
2022-09-23T06:09:39.100Z,1.58
2022-09-23T06:12:06.620Z,1.75
2022-09-23T06:14:34.130Z,1.65
2022-09-23T06:17:01.393Z,1.85
2022-09-23T06:19:28.524Z,1.60
2022-09-23T06:21:55.624Z,1.65
2022-09-23T06:24:26.086Z,1.73
2022-09-23T06:26:56.023Z,1.60
2022-09-23T06:29:23.484Z,1.73
2022-09-23T06:31:50.792Z,1.60
2022-09-23T06:34:18.309Z,1.75
2022-09-23T06:36:46.692Z,1.80
2022-09-23T06:39:15.734Z,1.75
2022-09-23T06:41:49.160Z,1.65
2022-09-23T06:44:16.280Z,1.80
2022-09-23T06:46:43.970Z,1.90
2022-09-23T06:49:12.312Z,1.75
2022-09-23T06:51:40.404Z,1.50
2022-09-23T06:54:07.807Z,1.33
2022-09-23T06:56:39.123Z,1.73
2022-09-23T06:59:09.925Z,1.85
2022-09-23T07:01:37.220Z,1.90
2022-09-23T07:04:04.737Z,1.63
2022-09-23T07:06:32.132Z,1.75
2022-09-23T07:08:59.350Z,1.73
2022-09-23T07:11:27.198Z,2.10
2022-09-23T07:13:54.249Z,1.90
2022-09-23T07:16:21.569Z,1.63
2022-09-23T07:18:48.911Z,1.77
2022-09-23T07:21:18.905Z,1.90
2022-09-23T07:23:48.669Z,1.83
2022-09-23T07:26:16.772Z,1.85
2022-09-23T07:28:44.240Z,1.65
2022-09-23T07:31:16.261Z,1.83
2022-09-23T07:33:45.057Z,1.65
2022-09-23T07:36:18.332Z,1.90
2022-09-23T07:38:47.640Z,1.90
2022-09-23T07:41:17.962Z,1.75
2022-09-23T07:43:46.272Z,1.77
2022-09-23T07:46:18.131Z,1.95
2022-09-23T07:48:46.109Z,1.70
2022-09-23T07:51:20.571Z,1.70
2022-09-23T07:53:49.629Z,1.90
2022-09-23T07:56:19.285Z,1.80
2022-09-23T07:59:04.072Z,2.00
2022-09-23T08:01:43.307Z,1.60
2022-09-23T08:04:26.242Z,2.00
2022-09-23T08:06:58.920Z,1.73
2022-09-23T08:09:47.680Z,1.50
2022-09-23T08:12:17.970Z,1.73
2022-09-23T08:14:45.547Z,2.08
2022-09-23T08:17:13.529Z,1.67
2022-09-23T08:19:40.627Z,1.75
2022-09-23T08:22:07.981Z,1.70
2022-09-23T08:24:35.057Z,1.55
2022-09-23T08:27:02.214Z,1.80
2022-09-23T08:29:29.343Z,1.98
2022-09-23T08:31:56.520Z,1.90
2022-09-23T08:34:24.048Z,1.60
2022-09-23T08:36:52.650Z,1.60
2022-09-23T08:39:20.509Z,1.52
2022-09-23T08:41:58.379Z,1.60
2022-09-23T08:44:40.707Z,1.40
2022-09-23T08:47:27.679Z,1.65
2022-09-23T08:50:13.291Z,0.98
2022-09-23T08:52:58.974Z,1.48
2022-09-23T08:55:46.814Z,1.33
2022-09-23T08:58:56.041Z,1.83
2022-09-23T09:01:45.446Z,1.30
2022-09-23T09:04:36.111Z,1.50
2022-09-23T09:10:25.771Z,1.55
2022-09-23T09:13:07.659Z,1.38
2022-09-23T09:15:50.261Z,1.63
2022-09-23T09:18:21.581Z,1.42
2022-09-23T09:21:11.669Z,1.95
2022-09-23T09:23:56.174Z,1.30
2022-09-23T09:26:29.700Z,1.50
2022-09-23T09:29:31.209Z,1.40
2022-09-23T09:34:31.055Z,1.50
2022-09-23T09:37:18.431Z,1.70
2022-09-23T09:39:45.602Z,1.70
2022-09-23T09:42:40.479Z,1.30
2022-09-23T09:45:19.943Z,1.52
2022-09-23T09:48:17.878Z,1.50
2022-09-23T09:50:53.289Z,1.48
2022-09-23T09:53:25.699Z,1.48
2022-09-23T09:56:08.262Z,1.30
2022-09-23T09:58:58.810Z,1.50
2022-09-23T10:01:28.359Z,1.33
2022-09-23T10:04:27.480Z,1.45
2022-09-23T10:07:09.949Z,1.17
2022-09-23T10:09:38.657Z,1.75
2022-09-23T10:12:20.386Z,1.42
2022-09-23T10:14:52.742Z,1.38
2022-09-23T10:17:28.971Z,1.27
2022-09-23T10:20:02.134Z,1.25
2022-09-23T10:22:33.762Z,1.20
2022-09-23T10:25:07.619Z,1.55
2022-09-23T10:27:36.949Z,1.30
2022-09-23T10:30:23.621Z,1.60
2022-09-23T10:32:53.260Z,1.40
2022-09-23T10:35:24.616Z,1.25
2022-09-23T10:37:56.728Z,1.45
2022-09-23T10:40:58.762Z,1.60
2022-09-23T10:44:05.957Z,1.40
2022-09-23T10:47:02.602Z,1.20
2022-09-23T10:49:52.917Z,1.40
2022-09-23T10:52:22.907Z,1.60
2022-09-23T10:54:53.084Z,1.38
2022-09-23T10:57:45.214Z,1.60
2022-09-23T11:00:32.729Z,1.25
2022-09-23T11:03:17.058Z,1.77
2022-09-23T11:06:17.170Z,1.90
2022-09-23T11:08:56.490Z,2.70
2022-09-23T11:11:40.603Z,2.88
2022-09-23T11:14:49.167Z,1.40
2022-09-23T11:17:35.270Z,1.48
2022-09-23T11:20:26.303Z,1.52
2022-09-23T11:23:28.988Z,1.23
2022-09-23T11:26:14.348Z,1.00
2022-09-23T11:28:47.238Z,1.20
2022-09-23T11:31:38.697Z,1.17
2022-09-23T11:34:09.270Z,1.20
2022-09-23T11:36:42.317Z,1.50
2022-09-23T11:39:21.066Z,1.48
2022-09-23T11:41:52.503Z,1.10
2022-09-23T11:44:37.507Z,1.23
2022-09-23T11:47:16.267Z,1.13
2022-09-23T11:50:04.713Z,1.30
2022-09-23T11:52:41.725Z,1.40
2022-09-23T11:55:32.026Z,1.30
2022-09-23T11:58:25.287Z,1.40
2022-09-23T12:01:01.551Z,1.25
2022-09-23T12:04:08.836Z,1.30
2022-09-23T12:07:10.688Z,1.38
2022-09-23T12:10:05.168Z,1.20
2022-09-23T12:12:48.273Z,1.05
2022-09-23T12:15:40.109Z,1.40
2022-09-23T12:18:37.338Z,1.10
2022-09-23T12:21:53.326Z,1.10
2022-09-23T12:24:55.758Z,1.38
2022-09-23T12:27:28.774Z,1.20
2022-09-23T12:30:02.033Z,1.50
2022-09-23T12:32:30.233Z,1.30
2022-09-23T12:34:58.314Z,1.67
2022-09-23T12:37:34.486Z,1.50
2022-09-23T12:40:27.781Z,1.27
2022-09-23T12:42:55.394Z,1.30
2022-09-23T12:45:32.886Z,1.40
2022-09-23T12:48:24.599Z,2.10
2022-09-23T12:50:53.435Z,2.65
2022-09-23T12:53:35.707Z,1.55
2022-09-23T12:56:16.659Z,1.42
2022-09-23T12:58:43.799Z,1.92
2022-09-23T13:01:23.501Z,1.40
2022-09-23T13:04:12.019Z,1.50
2022-09-23T13:06:57.660Z,1.40
2022-09-23T13:09:31.237Z,1.33
2022-09-23T13:12:05.900Z,1.45
2022-09-23T13:14:34.328Z,1.60
2022-09-23T13:17:01.758Z,1.38
2022-09-23T13:19:28.939Z,1.52
2022-09-23T13:22:09.618Z,1.42
2022-09-23T13:27:32.982Z,1.23
2022-09-23T13:30:08.110Z,1.13
2022-09-23T13:32:39.861Z,1.40
2022-09-23T13:35:20.361Z,1.40
2022-09-23T13:37:49.139Z,1.50
2022-09-23T13:40:24.055Z,1.30
2022-09-23T13:43:21.072Z,1.35
2022-09-23T13:45:48.447Z,1.65
2022-09-23T13:48:16.283Z,1.10
2022-09-23T13:50:51.529Z,1.10
2022-09-23T13:53:26.600Z,1.02
2022-09-23T13:56:13.665Z,1.20
2022-09-23T13:58:41.380Z,1.25
2022-09-23T14:01:10.444Z,1.20
2022-09-23T14:03:39.423Z,1.17
2022-09-23T14:06:14.904Z,1.10
2022-09-23T14:08:46.482Z,1.40
2022-09-23T14:11:22.626Z,1.20
2022-09-23T14:13:55.193Z,1.13
2022-09-23T14:16:28.305Z,1.02
2022-09-23T14:19:00.624Z,1.20
2022-09-23T14:21:37.287Z,1.20
2022-09-23T14:24:18.104Z,1.23
2022-09-23T14:26:54.805Z,1.20
2022-09-23T14:29:27.207Z,0.98
2022-09-23T14:31:57.391Z,1.35
2022-09-23T14:34:52.889Z,1.13
2022-09-23T14:37:44.068Z,1.20
2022-09-23T14:40:28.095Z,1.40
2022-09-23T14:43:21.178Z,1.50
2022-09-23T14:45:55.947Z,1.38
2022-09-23T14:48:29.508Z,1.23
2022-09-23T14:50:58.971Z,1.08
2022-09-23T14:53:46.629Z,1.30
2022-09-23T14:56:17.136Z,0.80
2022-09-23T14:58:58.928Z,1.23
2022-09-23T15:01:32.606Z,0.90
2022-09-23T15:04:01.426Z,1.02
2022-09-23T15:06:28.758Z,1.40
2022-09-23T15:08:56.413Z,1.00
2022-09-23T15:11:23.673Z,0.90
2022-09-23T15:13:53.293Z,1.20
2022-09-23T15:16:27.410Z,1.60
2022-09-23T15:18:57.951Z,1.05
2022-09-23T15:21:30.634Z,1.13
2022-09-23T15:23:58.856Z,1.00
2022-09-23T15:26:45.436Z,1.00
2022-09-23T15:29:12.855Z,1.23
2022-09-23T15:31:40.171Z,1.10
2022-09-23T15:34:07.603Z,1.02
2022-09-23T15:36:35.162Z,1.20
2022-09-23T15:39:05.516Z,1.20
2022-09-23T15:41:35.774Z,1.13
2022-09-23T15:44:13.094Z,1.17
2022-09-23T15:46:46.797Z,1.10
2022-09-23T15:49:23.316Z,1.30
2022-09-23T15:51:52.216Z,1.08
2022-09-23T15:54:19.667Z,1.10
2022-09-23T15:56:48.075Z,1.00
2022-09-23T15:59:15.237Z,0.88
2022-09-23T16:01:44.373Z,1.00
2022-09-23T16:04:13.281Z,1.27
2022-09-23T16:06:43.596Z,1.10
2022-09-23T16:09:14.667Z,1.20
2022-09-23T16:11:47.297Z,1.00
2022-09-23T16:14:16.728Z,1.00
2022-09-23T16:16:45.547Z,1.00
2022-09-23T16:19:12.965Z,0.98
2022-09-23T16:21:44.942Z,1.10
2022-09-23T16:24:18.059Z,1.10
2022-09-23T16:26:47.696Z,0.88
2022-09-23T16:29:15.317Z,1.27
2022-09-23T16:31:42.889Z,1.17
2022-09-23T16:34:10.270Z,1.08
2022-09-23T16:36:42.177Z,1.20
2022-09-23T16:39:12.848Z,1.00
2022-09-23T16:41:41.318Z,1.08
2022-09-23T16:44:10.815Z,0.90
2022-09-23T16:46:38.184Z,1.23
2022-09-23T16:49:05.586Z,1.10
2022-09-23T16:51:38.707Z,1.10
2022-09-23T16:54:12.018Z,1.50
2022-09-23T16:56:45.760Z,1.17
2022-09-23T16:59:14.139Z,1.27
2022-09-23T17:02:00.288Z,1.20
2022-09-23T17:04:27.981Z,1.40
2022-09-23T17:06:56.247Z,1.25
2022-09-23T17:09:26.182Z,1.35
2022-09-23T17:12:08.900Z,1.40
2022-09-23T17:14:36.081Z,1.30
2022-09-23T17:17:03.303Z,1.13
2022-09-23T17:19:30.716Z,0.90
2022-09-23T17:21:57.923Z,1.10
2022-09-23T17:24:25.021Z,1.13
2022-09-23T17:26:53.455Z,1.02
2022-09-23T17:29:20.823Z,1.00
2022-09-23T17:31:48.059Z,1.20
2022-09-23T17:34:16.623Z,1.20
2022-09-23T17:36:43.784Z,1.30
2022-09-23T17:39:11.403Z,1.30
2022-09-23T17:41:39.584Z,1.60
2022-09-23T17:44:08.221Z,1.17
2022-09-23T17:46:35.422Z,1.10
2022-09-23T17:49:04.229Z,1.38
2022-09-23T17:51:31.530Z,1.10
2022-09-23T17:53:58.764Z,1.35
2022-09-23T17:56:27.081Z,1.50
2022-09-23T17:58:54.421Z,1.80
2022-09-23T18:01:26.258Z,1.30
2022-09-23T18:03:55.589Z,1.40
2022-09-23T18:06:25.142Z,1.52
2022-09-23T18:08:52.850Z,2.15
2022-09-23T18:11:30.970Z,2.17
2022-09-23T18:14:00.873Z,2.60
2022-09-23T18:16:39.693Z,2.10
2022-09-23T18:19:08.603Z,2.00
2022-09-23T18:21:38.287Z,2.25
2022-09-23T18:24:28.567Z,2.27
2022-09-23T18:26:55.151Z,2.00
2022-09-23T18:29:22.464Z,2.40
2022-09-23T18:31:51.254Z,2.38
2022-09-23T18:34:18.824Z,2.42
2022-09-23T18:36:46.228Z,2.67
2022-09-23T18:39:13.629Z,2.45
2022-09-23T18:41:41.390Z,2.60
2022-09-23T18:44:09.129Z,2.40
2022-09-23T18:46:36.962Z,2.50
2022-09-23T18:49:23.051Z,2.17
2022-09-23T18:51:51.967Z,1.90
2022-09-23T18:54:20.091Z,2.30
2022-09-23T18:56:47.665Z,2.20
2022-09-23T18:59:18.010Z,2.50
2022-09-23T19:01:46.094Z,2.10
2022-09-23T19:04:15.439Z,2.30
2022-09-23T19:06:42.758Z,2.00
2022-09-23T19:09:10.790Z,2.20
2022-09-23T19:11:38.355Z,2.08
2022-09-23T19:14:10.723Z,2.28
2022-09-23T19:16:39.446Z,2.40
2022-09-23T19:19:07.612Z,2.50
2022-09-23T19:21:34.953Z,2.00
2022-09-23T19:24:05.082Z,2.03
2022-09-23T19:26:40.468Z,1.88
2022-09-23T19:29:12.920Z,2.00
2022-09-23T19:31:41.158Z,2.10
2022-09-23T19:34:13.405Z,2.00
2022-09-23T19:36:42.861Z,1.73
2022-09-23T19:39:21.128Z,1.60
2022-09-23T19:41:49.132Z,1.90
2022-09-23T19:44:17.069Z,2.20
2022-09-23T19:46:45.885Z,1.77
2022-09-23T19:49:13.789Z,1.75
2022-09-23T19:51:41.517Z,1.90
2022-09-23T19:54:09.390Z,1.80
2022-09-23T19:56:36.976Z,1.98
2022-09-23T19:59:06.135Z,1.80
2022-09-23T20:01:34.119Z,2.00
2022-09-23T20:04:02.415Z,1.92
2022-09-23T20:06:31.571Z,2.05
2022-09-23T20:09:00.988Z,2.17
2022-09-23T20:11:29.434Z,2.47
2022-09-23T20:14:01.908Z,2.17
2022-09-23T20:16:32.704Z,2.35
2022-09-23T20:19:01.223Z,2.03
2022-09-23T20:21:29.738Z,2.08
2022-09-23T20:23:58.181Z,2.13
2022-09-23T20:26:44.229Z,1.85
2022-09-23T20:29:11.658Z,1.80
2022-09-23T20:31:41.671Z,2.00
2022-09-23T20:34:10.903Z,1.83
2022-09-23T20:36:40.182Z,1.98
2022-09-23T20:39:07.590Z,1.60
2022-09-23T20:41:38.085Z,1.70
2022-09-23T20:46:36.020Z,1.70
2022-09-23T20:49:04.083Z,1.42
2022-09-23T20:51:33.642Z,1.70
2022-09-23T20:54:01.340Z,1.58
2022-09-23T20:56:29.288Z,1.70
2022-09-23T20:59:04.212Z,1.98
2022-09-23T21:01:36.712Z,1.73
2022-09-23T21:04:06.039Z,1.73
2022-09-23T21:06:35.426Z,1.73
2022-09-23T21:09:03.417Z,1.60
2022-09-23T21:11:31.417Z,1.70
2022-09-23T21:14:01.391Z,1.63
2022-09-23T21:16:29.150Z,1.63
2022-09-23T21:18:56.743Z,1.58
2022-09-23T21:21:23.991Z,1.60
2022-09-23T21:23:51.613Z,1.75
2022-09-23T21:26:21.470Z,1.83
2022-09-23T21:28:51.239Z,1.55
2022-09-23T21:31:31.450Z,1.60
2022-09-23T21:34:04.014Z,1.80
2022-09-23T21:36:34.771Z,1.70
2022-09-23T21:39:02.047Z,1.60
2022-09-23T21:41:29.348Z,1.70
2022-09-23T21:43:57.949Z,1.75
2022-09-23T21:46:26.718Z,1.50
2022-09-23T21:48:55.295Z,1.65
2022-09-23T21:51:27.903Z,1.65
2022-09-23T21:53:57.443Z,1.60
2022-09-23T21:56:27.301Z,1.70
2022-09-23T21:58:55.519Z,1.65
2022-09-23T22:01:30.007Z,1.67
2022-09-23T22:04:08.599Z,1.85
2022-09-23T22:06:38.432Z,1.90
2022-09-23T22:09:10.683Z,1.63
2022-09-23T22:11:57.396Z,1.63
2022-09-23T22:14:26.504Z,1.60
2022-09-23T22:16:57.675Z,1.60
2022-09-23T22:19:27.202Z,1.70
2022-09-23T22:21:56.145Z,1.67
2022-09-23T22:24:23.560Z,1.60
2022-09-23T22:26:51.402Z,1.60
2022-09-23T22:29:37.170Z,1.70
2022-09-23T22:32:25.035Z,1.60
2022-09-23T22:34:52.808Z,1.50
2022-09-23T22:37:26.126Z,1.42
2022-09-23T22:39:54.125Z,1.65
2022-09-23T22:42:22.625Z,1.50
2022-09-23T22:44:50.745Z,1.60
2022-09-23T22:47:18.909Z,1.58
2022-09-23T22:49:49.504Z,1.73
2022-09-23T22:54:48.628Z,1.85
2022-09-23T22:57:15.779Z,1.80
2022-09-23T22:59:48.335Z,1.75
2022-09-23T23:02:19.949Z,1.75
2022-09-23T23:04:47.865Z,1.15
2022-09-23T23:07:21.387Z,1.55
2022-09-23T23:09:50.469Z,1.90
2022-09-23T23:12:20.464Z,1.58
2022-09-23T23:14:48.734Z,1.80
2022-09-23T23:17:16.639Z,1.73
2022-09-23T23:19:43.845Z,1.80
2022-09-23T23:22:11.095Z,1.50
2022-09-23T23:24:38.345Z,1.60
2022-09-23T23:27:05.631Z,1.45
2022-09-23T23:29:32.887Z,1.48
2022-09-23T23:32:00.029Z,1.90
2022-09-23T23:34:28.096Z,1.73
2022-09-23T23:36:55.936Z,1.70
2022-09-23T23:39:24.962Z,1.70
2022-09-23T23:41:56.709Z,1.77
2022-09-23T23:44:26.049Z,1.70
2022-09-23T23:46:54.656Z,1.80
2022-09-23T23:49:22.212Z,1.75
2022-09-23T23:51:49.767Z,1.58
2022-09-23T23:54:17.321Z,1.75
2022-09-23T23:56:44.494Z,1.63
2022-09-23T23:59:11.873Z,1.75
